sensor_id;sensor_type;location;lat;lon;timestamp;temperature;humidity
32400;DHT22;45045;45.440;9.178;2023-05-19T00:01:08;21.80;91.80
32400;DHT22;45045;45.440;9.178;2023-05-19T00:03:34;21.80;92.00
32400;DHT22;45045;45.440;9.178;2023-05-19T00:06:06;21.80;92.40
32400;DHT22;45045;45.440;9.178;2023-05-19T00:08:37;21.80;92.00
32400;DHT22;45045;45.440;9.178;2023-05-19T00:11:03;21.80;92.20
32400;DHT22;45045;45.440;9.178;2023-05-19T00:13:29;21.80;92.20
32400;DHT22;45045;45.440;9.178;2023-05-19T00:15:55;21.80;92.20
32400;DHT22;45045;45.440;9.178;2023-05-19T00:18:21;21.70;92.20
32400;DHT22;45045;45.440;9.178;2023-05-19T00:20:48;21.70;92.30
32400;DHT22;45045;45.440;9.178;2023-05-19T00:23:13;21.70;92.40
32400;DHT22;45045;45.440;9.178;2023-05-19T00:25:39;21.70;92.60
32400;DHT22;45045;45.440;9.178;2023-05-19T00:28:05;21.70;92.60
32400;DHT22;45045;45.440;9.178;2023-05-19T00:30:31;21.70;92.60
32400;DHT22;45045;45.440;9.178;2023-05-19T00:32:57;21.70;92.70
32400;DHT22;45045;45.440;9.178;2023-05-19T00:35:23;21.70;92.80
32400;DHT22;45045;45.440;9.178;2023-05-19T00:37:49;21.70;92.90
32400;DHT22;45045;45.440;9.178;2023-05-19T00:40:15;21.60;93.00
32400;DHT22;45045;45.440;9.178;2023-05-19T00:42:40;21.70;93.10
32400;DHT22;45045;45.440;9.178;2023-05-19T00:45:07;21.70;93.20
32400;DHT22;45045;45.440;9.178;2023-05-19T00:47:33;21.60;93.10
32400;DHT22;45045;45.440;9.178;2023-05-19T00:49:59;21.70;93.20
32400;DHT22;45045;45.440;9.178;2023-05-19T00:52:25;21.70;93.30
32400;DHT22;45045;45.440;9.178;2023-05-19T00:54:52;21.70;93.40
32400;DHT22;45045;45.440;9.178;2023-05-19T00:57:20;21.60;93.50
32400;DHT22;45045;45.440;9.178;2023-05-19T00:59:47;21.60;93.60
32400;DHT22;45045;45.440;9.178;2023-05-19T01:02:13;21.60;93.60
32400;DHT22;45045;45.440;9.178;2023-05-19T01:04:39;21.60;93.60
32400;DHT22;45045;45.440;9.178;2023-05-19T01:07:06;21.60;93.70
32400;DHT22;45045;45.440;9.178;2023-05-19T01:09:32;21.60;93.60
32400;DHT22;45045;45.440;9.178;2023-05-19T01:12:01;21.60;93.80
32400;DHT22;45045;45.440;9.178;2023-05-19T01:14:27;21.60;93.80
32400;DHT22;45045;45.440;9.178;2023-05-19T01:17:05;21.60;94.00
32400;DHT22;45045;45.440;9.178;2023-05-19T01:22:38;21.50;94.10
32400;DHT22;45045;45.440;9.178;2023-05-19T01:30:56;21.50;94.20
32400;DHT22;45045;45.440;9.178;2023-05-19T01:33:23;21.50;94.20
32400;DHT22;45045;45.440;9.178;2023-05-19T01:35:50;21.50;94.20
32400;DHT22;45045;45.440;9.178;2023-05-19T01:38:18;21.50;94.10
32400;DHT22;45045;45.440;9.178;2023-05-19T01:40:46;21.50;94.40
32400;DHT22;45045;45.440;9.178;2023-05-19T01:43:17;21.50;94.30
32400;DHT22;45045;45.440;9.178;2023-05-19T01:45:44;21.50;94.60
32400;DHT22;45045;45.440;9.178;2023-05-19T01:48:10;21.40;94.40
32400;DHT22;45045;45.440;9.178;2023-05-19T01:50:37;21.40;94.60
32400;DHT22;45045;45.440;9.178;2023-05-19T01:53:03;21.40;94.70
32400;DHT22;45045;45.440;9.178;2023-05-19T01:55:29;21.50;94.50
32400;DHT22;45045;45.440;9.178;2023-05-19T02:09:07;21.40;94.90
32400;DHT22;45045;45.440;9.178;2023-05-19T02:14:13;21.40;95.00
32400;DHT22;45045;45.440;9.178;2023-05-19T02:16:44;21.40;94.90
32400;DHT22;45045;45.440;9.178;2023-05-19T02:19:20;21.40;95.00
32400;DHT22;45045;45.440;9.178;2023-05-19T02:21:45;21.30;95.00
32400;DHT22;45045;45.440;9.178;2023-05-19T02:24:11;21.40;95.10
32400;DHT22;45045;45.440;9.178;2023-05-19T02:26:37;21.30;95.20
32400;DHT22;45045;45.440;9.178;2023-05-19T02:29:03;21.30;95.20
32400;DHT22;45045;45.440;9.178;2023-05-19T02:31:28;21.30;95.30
32400;DHT22;45045;45.440;9.178;2023-05-19T02:33:54;21.30;95.30
32400;DHT22;45045;45.440;9.178;2023-05-19T02:36:20;21.30;95.30
32400;DHT22;45045;45.440;9.178;2023-05-19T02:38:45;21.30;95.40
32400;DHT22;45045;45.440;9.178;2023-05-19T02:41:11;21.30;95.50
32400;DHT22;45045;45.440;9.178;2023-05-19T02:43:37;21.30;95.60
32400;DHT22;45045;45.440;9.178;2023-05-19T02:46:03;21.30;95.60
32400;DHT22;45045;45.440;9.178;2023-05-19T02:48:28;21.20;95.70
32400;DHT22;45045;45.440;9.178;2023-05-19T02:50:54;21.30;95.70
32400;DHT22;45045;45.440;9.178;2023-05-19T02:53:19;21.30;95.70
32400;DHT22;45045;45.440;9.178;2023-05-19T02:55:45;21.30;95.80
32400;DHT22;45045;45.440;9.178;2023-05-19T02:58:11;21.30;95.70
32400;DHT22;45045;45.440;9.178;2023-05-19T03:00:37;21.20;95.80
32400;DHT22;45045;45.440;9.178;2023-05-19T03:03:02;21.30;95.90
32400;DHT22;45045;45.440;9.178;2023-05-19T03:05:30;21.30;95.90
32400;DHT22;45045;45.440;9.178;2023-05-19T03:07:56;21.30;96.00
32400;DHT22;45045;45.440;9.178;2023-05-19T03:10:22;21.20;96.00
32400;DHT22;45045;45.440;9.178;2023-05-19T03:12:47;21.20;96.10
32400;DHT22;45045;45.440;9.178;2023-05-19T03:15:13;21.20;96.10
32400;DHT22;45045;45.440;9.178;2023-05-19T03:17:39;21.20;96.10
32400;DHT22;45045;45.440;9.178;2023-05-19T03:20:06;21.20;96.20
32400;DHT22;45045;45.440;9.178;2023-05-19T03:22:32;21.20;96.20
32400;DHT22;45045;45.440;9.178;2023-05-19T03:24:57;21.20;96.20
32400;DHT22;45045;45.440;9.178;2023-05-19T03:27:23;21.20;96.30
32400;DHT22;45045;45.440;9.178;2023-05-19T03:29:49;21.20;96.30
32400;DHT22;45045;45.440;9.178;2023-05-19T03:32:15;21.20;96.30
32400;DHT22;45045;45.440;9.178;2023-05-19T03:34:40;21.20;96.40
32400;DHT22;45045;45.440;9.178;2023-05-19T03:37:06;21.20;96.40
32400;DHT22;45045;45.440;9.178;2023-05-19T03:39:32;21.20;96.40
32400;DHT22;45045;45.440;9.178;2023-05-19T03:41:58;21.20;96.50
32400;DHT22;45045;45.440;9.178;2023-05-19T03:44:23;21.20;96.50
32400;DHT22;45045;45.440;9.178;2023-05-19T03:46:49;21.20;96.50
32400;DHT22;45045;45.440;9.178;2023-05-19T03:49:15;21.20;96.60
32400;DHT22;45045;45.440;9.178;2023-05-19T03:51:41;21.20;96.60
32400;DHT22;45045;45.440;9.178;2023-05-19T03:54:07;21.20;96.60
32400;DHT22;45045;45.440;9.178;2023-05-19T03:56:33;21.20;96.60
32400;DHT22;45045;45.440;9.178;2023-05-19T03:58:58;21.20;96.60
32400;DHT22;45045;45.440;9.178;2023-05-19T04:01:24;21.20;96.70
32400;DHT22;45045;45.440;9.178;2023-05-19T04:03:50;21.10;96.70
32400;DHT22;45045;45.440;9.178;2023-05-19T04:06:15;21.10;96.80
32400;DHT22;45045;45.440;9.178;2023-05-19T04:08:42;21.10;96.60
32400;DHT22;45045;45.440;9.178;2023-05-19T04:11:08;21.10;96.80
32400;DHT22;45045;45.440;9.178;2023-05-19T04:13:34;21.10;96.70
32400;DHT22;45045;45.440;9.178;2023-05-19T04:16:00;21.10;96.80
32400;DHT22;45045;45.440;9.178;2023-05-19T04:18:26;21.00;96.80
32400;DHT22;45045;45.440;9.178;2023-05-19T04:20:51;21.00;96.60
32400;DHT22;45045;45.440;9.178;2023-05-19T04:23:17;21.00;96.90
32400;DHT22;45045;45.440;9.178;2023-05-19T04:25:43;21.00;96.90
32400;DHT22;45045;45.440;9.178;2023-05-19T04:28:08;21.00;96.20
32400;DHT22;45045;45.440;9.178;2023-05-19T04:30:34;20.90;96.40
32400;DHT22;45045;45.440;9.178;2023-05-19T04:33:01;20.90;96.70
32400;DHT22;45045;45.440;9.178;2023-05-19T04:35:28;20.90;96.90
32400;DHT22;45045;45.440;9.178;2023-05-19T04:37:54;20.90;96.80
32400;DHT22;45045;45.440;9.178;2023-05-19T04:40:20;20.90;96.90
32400;DHT22;45045;45.440;9.178;2023-05-19T04:42:48;21.00;96.80
32400;DHT22;45045;45.440;9.178;2023-05-19T04:45:17;20.90;95.80
32400;DHT22;45045;45.440;9.178;2023-05-19T04:47:43;20.80;95.60
32400;DHT22;45045;45.440;9.178;2023-05-19T04:50:11;20.70;95.90
32400;DHT22;45045;45.440;9.178;2023-05-19T04:52:37;20.60;96.40
32400;DHT22;45045;45.440;9.178;2023-05-19T04:55:03;20.70;95.80
32400;DHT22;45045;45.440;9.178;2023-05-19T04:57:29;20.60;95.70
32400;DHT22;45045;45.440;9.178;2023-05-19T04:59:54;20.60;96.10
32400;DHT22;45045;45.440;9.178;2023-05-19T05:02:27;20.50;94.60
32400;DHT22;45045;45.440;9.178;2023-05-19T05:04:56;20.50;96.30
32400;DHT22;45045;45.440;9.178;2023-05-19T05:07:22;20.60;95.90
32400;DHT22;45045;45.440;9.178;2023-05-19T05:09:48;20.50;94.90
32400;DHT22;45045;45.440;9.178;2023-05-19T05:12:15;20.50;95.50
32400;DHT22;45045;45.440;9.178;2023-05-19T05:14:41;20.50;96.10
32400;DHT22;45045;45.440;9.178;2023-05-19T05:17:07;20.60;96.90
32400;DHT22;45045;45.440;9.178;2023-05-19T05:19:34;20.70;97.00
32400;DHT22;45045;45.440;9.178;2023-05-19T05:22:00;20.80;97.30
32400;DHT22;45045;45.440;9.178;2023-05-19T05:24:26;20.80;97.60
32400;DHT22;45045;45.440;9.178;2023-05-19T05:26:52;20.80;97.60
32400;DHT22;45045;45.440;9.178;2023-05-19T05:29:18;20.80;97.40
32400;DHT22;45045;45.440;9.178;2023-05-19T05:31:44;20.80;97.30
32400;DHT22;45045;45.440;9.178;2023-05-19T05:34:10;20.80;97.10
32400;DHT22;45045;45.440;9.178;2023-05-19T05:36:35;20.90;96.90
32400;DHT22;45045;45.440;9.178;2023-05-19T05:39:01;20.90;96.80
32400;DHT22;45045;45.440;9.178;2023-05-19T05:41:27;20.90;96.70
32400;DHT22;45045;45.440;9.178;2023-05-19T05:44:02;20.80;96.50
32400;DHT22;45045;45.440;9.178;2023-05-19T05:46:28;20.90;96.50
32400;DHT22;45045;45.440;9.178;2023-05-19T05:48:55;20.90;96.30
32400;DHT22;45045;45.440;9.178;2023-05-19T05:51:21;20.90;96.20
32400;DHT22;45045;45.440;9.178;2023-05-19T05:53:51;20.80;93.80
32400;DHT22;45045;45.440;9.178;2023-05-19T05:56:17;20.70;94.30
32400;DHT22;45045;45.440;9.178;2023-05-19T05:58:43;20.70;95.40
32400;DHT22;45045;45.440;9.178;2023-05-19T06:01:09;20.60;95.10
32400;DHT22;45045;45.440;9.178;2023-05-19T06:03:40;20.70;95.70
32400;DHT22;45045;45.440;9.178;2023-05-19T06:06:06;20.70;95.30
32400;DHT22;45045;45.440;9.178;2023-05-19T06:08:31;20.60;94.60
32400;DHT22;45045;45.440;9.178;2023-05-19T06:10:57;20.70;95.30
32400;DHT22;45045;45.440;9.178;2023-05-19T06:13:23;20.60;95.10
32400;DHT22;45045;45.440;9.178;2023-05-19T06:15:50;20.60;94.70
32400;DHT22;45045;45.440;9.178;2023-05-19T06:18:16;20.50;94.70
32400;DHT22;45045;45.440;9.178;2023-05-19T06:20:42;20.40;94.60
32400;DHT22;45045;45.440;9.178;2023-05-19T06:23:08;20.40;94.20
32400;DHT22;45045;45.440;9.178;2023-05-19T06:25:33;20.00;94.50
32400;DHT22;45045;45.440;9.178;2023-05-19T06:27:59;19.80;95.20
32400;DHT22;45045;45.440;9.178;2023-05-19T06:30:25;19.80;95.30
32400;DHT22;45045;45.440;9.178;2023-05-19T06:32:51;19.80;95.50
32400;DHT22;45045;45.440;9.178;2023-05-19T06:35:16;19.80;95.60
32400;DHT22;45045;45.440;9.178;2023-05-19T06:37:42;19.60;96.00
32400;DHT22;45045;45.440;9.178;2023-05-19T06:40:08;19.30;96.30
32400;DHT22;45045;45.440;9.178;2023-05-19T06:42:34;19.10;97.00
32400;DHT22;45045;45.440;9.178;2023-05-19T06:45:03;19.20;97.10
32400;DHT22;45045;45.440;9.178;2023-05-19T06:47:29;19.40;97.20
32400;DHT22;45045;45.440;9.178;2023-05-19T06:49:55;19.70;96.90
32400;DHT22;45045;45.440;9.178;2023-05-19T06:52:21;19.70;96.50
32400;DHT22;45045;45.440;9.178;2023-05-19T06:54:48;19.90;96.00
32400;DHT22;45045;45.440;9.178;2023-05-19T06:57:14;20.00;96.20
32400;DHT22;45045;45.440;9.178;2023-05-19T06:59:40;20.10;96.30
32400;DHT22;45045;45.440;9.178;2023-05-19T07:02:07;20.30;96.00
32400;DHT22;45045;45.440;9.178;2023-05-19T07:04:33;20.40;95.80
32400;DHT22;45045;45.440;9.178;2023-05-19T07:06:59;20.40;95.70
32400;DHT22;45045;45.440;9.178;2023-05-19T07:09:25;20.50;95.50
32400;DHT22;45045;45.440;9.178;2023-05-19T07:11:51;20.40;95.70
32400;DHT22;45045;45.440;9.178;2023-05-19T07:14:16;20.50;96.00
32400;DHT22;45045;45.440;9.178;2023-05-19T07:16:42;20.60;96.00
32400;DHT22;45045;45.440;9.178;2023-05-19T07:19:08;20.50;95.60
32400;DHT22;45045;45.440;9.178;2023-05-19T07:21:34;20.50;95.50
32400;DHT22;45045;45.440;9.178;2023-05-19T07:24:00;20.60;95.50
32400;DHT22;45045;45.440;9.178;2023-05-19T07:26:26;20.50;95.30
32400;DHT22;45045;45.440;9.178;2023-05-19T07:28:52;20.50;95.60
32400;DHT22;45045;45.440;9.178;2023-05-19T07:31:18;20.50;95.50
32400;DHT22;45045;45.440;9.178;2023-05-19T07:33:44;20.40;95.50
32400;DHT22;45045;45.440;9.178;2023-05-19T07:36:09;20.40;95.80
32400;DHT22;45045;45.440;9.178;2023-05-19T07:38:35;20.60;96.00
32400;DHT22;45045;45.440;9.178;2023-05-19T07:41:01;20.70;96.00
32400;DHT22;45045;45.440;9.178;2023-05-19T07:43:27;20.60;94.90
32400;DHT22;45045;45.440;9.178;2023-05-19T07:45:53;20.40;95.60
32400;DHT22;45045;45.440;9.178;2023-05-19T07:48:21;20.40;95.70
32400;DHT22;45045;45.440;9.178;2023-05-19T07:50:47;20.50;95.40
32400;DHT22;45045;45.440;9.178;2023-05-19T07:53:14;20.60;94.80
32400;DHT22;45045;45.440;9.178;2023-05-19T07:55:39;20.40;94.80
32400;DHT22;45045;45.440;9.178;2023-05-19T07:58:05;20.20;95.40
32400;DHT22;45045;45.440;9.178;2023-05-19T08:00:31;20.20;95.40
32400;DHT22;45045;45.440;9.178;2023-05-19T08:02:57;20.20;95.10
32400;DHT22;45045;45.440;9.178;2023-05-19T08:05:23;20.10;95.20
32400;DHT22;45045;45.440;9.178;2023-05-19T08:07:50;20.20;95.50
32400;DHT22;45045;45.440;9.178;2023-05-19T08:10:16;20.50;95.70
32400;DHT22;45045;45.440;9.178;2023-05-19T08:12:42;20.40;95.00
32400;DHT22;45045;45.440;9.178;2023-05-19T08:15:11;20.50;95.50
32400;DHT22;45045;45.440;9.178;2023-05-19T08:17:36;20.60;95.20
32400;DHT22;45045;45.440;9.178;2023-05-19T08:20:03;20.60;94.70
32400;DHT22;45045;45.440;9.178;2023-05-19T08:22:30;20.40;95.10
32400;DHT22;45045;45.440;9.178;2023-05-19T08:24:56;20.60;95.30
32400;DHT22;45045;45.440;9.178;2023-05-19T08:27:22;20.70;94.80
32400;DHT22;45045;45.440;9.178;2023-05-19T08:29:48;20.60;95.20
32400;DHT22;45045;45.440;9.178;2023-05-19T08:32:14;20.70;94.70
32400;DHT22;45045;45.440;9.178;2023-05-19T08:34:40;20.70;94.20
32400;DHT22;45045;45.440;9.178;2023-05-19T08:37:06;20.70;94.70
32400;DHT22;45045;45.440;9.178;2023-05-19T08:39:32;20.80;94.30
32400;DHT22;45045;45.440;9.178;2023-05-19T08:41:59;20.80;94.30
32400;DHT22;45045;45.440;9.178;2023-05-19T08:44:26;20.80;94.30
32400;DHT22;45045;45.440;9.178;2023-05-19T08:46:53;20.90;94.10
32400;DHT22;45045;45.440;9.178;2023-05-19T08:49:25;20.90;94.40
32400;DHT22;45045;45.440;9.178;2023-05-19T08:52:01;21.00;94.40
32400;DHT22;45045;45.440;9.178;2023-05-19T08:54:39;21.10;94.70
32400;DHT22;45045;45.440;9.178;2023-05-19T08:57:06;21.20;94.20
32400;DHT22;45045;45.440;9.178;2023-05-19T08:59:32;21.00;94.20
32400;DHT22;45045;45.440;9.178;2023-05-19T09:01:59;21.00;94.50
32400;DHT22;45045;45.440;9.178;2023-05-19T09:04:25;20.90;94.50
32400;DHT22;45045;45.440;9.178;2023-05-19T09:06:52;20.90;95.00
32400;DHT22;45045;45.440;9.178;2023-05-19T09:09:18;21.10;94.90
32400;DHT22;45045;45.440;9.178;2023-05-19T09:11:47;21.10;94.80
32400;DHT22;45045;45.440;9.178;2023-05-19T09:14:13;21.10;94.70
32400;DHT22;45045;45.440;9.178;2023-05-19T09:16:39;21.20;94.70
32400;DHT22;45045;45.440;9.178;2023-05-19T09:19:05;21.30;94.30
32400;DHT22;45045;45.440;9.178;2023-05-19T09:21:39;21.20;94.30
32400;DHT22;45045;45.440;9.178;2023-05-19T09:24:06;21.10;94.70
32400;DHT22;45045;45.440;9.178;2023-05-19T09:26:40;21.10;94.80
32400;DHT22;45045;45.440;9.178;2023-05-19T09:29:16;21.10;95.10
32400;DHT22;45045;45.440;9.178;2023-05-19T09:31:49;21.10;95.30
32400;DHT22;45045;45.440;9.178;2023-05-19T09:34:15;21.20;95.10
32400;DHT22;45045;45.440;9.178;2023-05-19T09:36:41;21.10;95.40
32400;DHT22;45045;45.440;9.178;2023-05-19T09:39:17;21.10;95.50
32400;DHT22;45045;45.440;9.178;2023-05-19T09:41:43;21.20;95.40
32400;DHT22;45045;45.440;9.178;2023-05-19T09:44:21;21.20;95.20
32400;DHT22;45045;45.440;9.178;2023-05-19T09:46:51;21.10;95.50
32400;DHT22;45045;45.440;9.178;2023-05-19T09:49:25;21.20;95.60
32400;DHT22;45045;45.440;9.178;2023-05-19T09:52:01;21.10;95.50
32400;DHT22;45045;45.440;9.178;2023-05-19T09:54:27;21.10;95.40
32400;DHT22;45045;45.440;9.178;2023-05-19T09:57:00;21.10;95.30
32400;DHT22;45045;45.440;9.178;2023-05-19T09:59:27;21.10;95.30
32400;DHT22;45045;45.440;9.178;2023-05-19T10:01:54;21.20;95.50
32400;DHT22;45045;45.440;9.178;2023-05-19T10:04:28;21.20;95.30
32400;DHT22;45045;45.440;9.178;2023-05-19T10:06:55;21.40;95.20
32400;DHT22;45045;45.440;9.178;2023-05-19T10:09:28;21.40;95.20
32400;DHT22;45045;45.440;9.178;2023-05-19T10:11:57;21.40;95.30
32400;DHT22;45045;45.440;9.178;2023-05-19T10:14:25;21.30;95.30
32400;DHT22;45045;45.440;9.178;2023-05-19T10:16:52;21.40;95.30
32400;DHT22;45045;45.440;9.178;2023-05-19T10:19:26;21.40;95.10
32400;DHT22;45045;45.440;9.178;2023-05-19T10:21:52;21.40;95.20
32400;DHT22;45045;45.440;9.178;2023-05-19T10:24:18;21.50;95.10
32400;DHT22;45045;45.440;9.178;2023-05-19T10:27:06;21.50;95.00
32400;DHT22;45045;45.440;9.178;2023-05-19T10:29:35;21.60;95.10
32400;DHT22;45045;45.440;9.178;2023-05-19T10:32:07;21.60;95.10
32400;DHT22;45045;45.440;9.178;2023-05-19T10:40:27;21.60;94.90
32400;DHT22;45045;45.440;9.178;2023-05-19T10:43:11;21.60;94.90
32400;DHT22;45045;45.440;9.178;2023-05-19T10:45:47;21.60;94.90
32400;DHT22;45045;45.440;9.178;2023-05-19T10:48:18;21.60;95.00
32400;DHT22;45045;45.440;9.178;2023-05-19T10:50:45;21.60;95.10
32400;DHT22;45045;45.440;9.178;2023-05-19T10:53:15;21.60;95.00
32400;DHT22;45045;45.440;9.178;2023-05-19T10:55:54;21.60;95.20
32400;DHT22;45045;45.440;9.178;2023-05-19T10:58:47;21.50;95.30
32400;DHT22;45045;45.440;9.178;2023-05-19T11:01:15;21.50;95.40
32400;DHT22;45045;45.440;9.178;2023-05-19T11:03:51;21.50;95.50
32400;DHT22;45045;45.440;9.178;2023-05-19T11:06:27;21.40;95.60
32400;DHT22;45045;45.440;9.178;2023-05-19T11:09:08;21.50;95.70
32400;DHT22;45045;45.440;9.178;2023-05-19T11:11:51;21.60;95.80
32400;DHT22;45045;45.440;9.178;2023-05-19T11:14:22;21.50;95.50
32400;DHT22;45045;45.440;9.178;2023-05-19T11:16:50;21.50;95.50
32400;DHT22;45045;45.440;9.178;2023-05-19T11:19:26;21.40;95.80
32400;DHT22;45045;45.440;9.178;2023-05-19T11:21:52;21.40;96.30
32400;DHT22;45045;45.440;9.178;2023-05-19T11:24:34;21.50;95.80
32400;DHT22;45045;45.440;9.178;2023-05-19T11:27:30;21.50;95.90
32400;DHT22;45045;45.440;9.178;2023-05-19T11:32:34;21.50;96.10
32400;DHT22;45045;45.440;9.178;2023-05-19T11:35:01;21.50;96.40
32400;DHT22;45045;45.440;9.178;2023-05-19T11:37:31;21.50;96.30
32400;DHT22;45045;45.440;9.178;2023-05-19T11:39:57;21.60;96.20
32400;DHT22;45045;45.440;9.178;2023-05-19T11:42:25;21.60;96.10
32400;DHT22;45045;45.440;9.178;2023-05-19T11:44:54;21.60;96.40
32400;DHT22;45045;45.440;9.178;2023-05-19T11:47:20;21.60;96.80
32400;DHT22;45045;45.440;9.178;2023-05-19T11:49:50;21.60;97.30
32400;DHT22;45045;45.440;9.178;2023-05-19T11:52:22;21.70;98.10
32400;DHT22;45045;45.440;9.178;2023-05-19T11:54:49;21.60;98.70
32400;DHT22;45045;45.440;9.178;2023-05-19T11:57:15;21.70;99.30
32400;DHT22;45045;45.440;9.178;2023-05-19T11:59:41;21.70;98.70
32400;DHT22;45045;45.440;9.178;2023-05-19T12:02:21;21.80;99.50
32400;DHT22;45045;45.440;9.178;2023-05-19T12:04:47;21.80;99.90
32400;DHT22;45045;45.440;9.178;2023-05-19T12:07:17;21.80;99.90
32400;DHT22;45045;45.440;9.178;2023-05-19T12:09:47;21.80;99.90
32400;DHT22;45045;45.440;9.178;2023-05-19T12:12:15;21.80;99.50
32400;DHT22;45045;45.440;9.178;2023-05-19T12:14:41;21.80;99.90
32400;DHT22;45045;45.440;9.178;2023-05-19T12:17:14;21.70;99.90
32400;DHT22;45045;45.440;9.178;2023-05-19T12:19:45;21.70;99.80
32400;DHT22;45045;45.440;9.178;2023-05-19T12:22:12;21.70;99.90
32400;DHT22;45045;45.440;9.178;2023-05-19T12:24:38;21.70;99.90
32400;DHT22;45045;45.440;9.178;2023-05-19T12:27:16;21.30;99.90
32400;DHT22;45045;45.440;9.178;2023-05-19T12:29:41;20.50;99.90
32400;DHT22;45045;45.440;9.178;2023-05-19T12:32:08;20.00;99.90
32400;DHT22;45045;45.440;9.178;2023-05-19T12:34:37;19.70;99.90
32400;DHT22;45045;45.440;9.178;2023-05-19T12:37:06;20.20;99.90
32400;DHT22;45045;45.440;9.178;2023-05-19T12:39:32;20.30;99.90
32400;DHT22;45045;45.440;9.178;2023-05-19T12:42:16;20.40;99.90
32400;DHT22;45045;45.440;9.178;2023-05-19T12:44:43;20.00;99.90
32400;DHT22;45045;45.440;9.178;2023-05-19T12:47:11;20.00;99.90
32400;DHT22;45045;45.440;9.178;2023-05-19T12:49:53;20.10;99.90
32400;DHT22;45045;45.440;9.178;2023-05-19T12:52:19;20.30;99.90
32400;DHT22;45045;45.440;9.178;2023-05-19T12:54:48;20.00;99.90
32400;DHT22;45045;45.440;9.178;2023-05-19T12:57:15;19.90;99.90
32400;DHT22;45045;45.440;9.178;2023-05-19T12:59:41;19.70;99.90
32400;DHT22;45045;45.440;9.178;2023-05-19T13:02:07;19.60;99.90
32400;DHT22;45045;45.440;9.178;2023-05-19T13:04:33;19.50;99.90
32400;DHT22;45045;45.440;9.178;2023-05-19T13:06:59;19.70;99.90
32400;DHT22;45045;45.440;9.178;2023-05-19T13:09:26;19.70;99.90
32400;DHT22;45045;45.440;9.178;2023-05-19T13:11:52;19.80;99.90
32400;DHT22;45045;45.440;9.178;2023-05-19T13:14:19;19.80;99.90
32400;DHT22;45045;45.440;9.178;2023-05-19T13:16:45;19.70;99.90
32400;DHT22;45045;45.440;9.178;2023-05-19T13:19:16;19.50;99.90
32400;DHT22;45045;45.440;9.178;2023-05-19T13:21:43;19.10;99.90
32400;DHT22;45045;45.440;9.178;2023-05-19T13:24:11;19.00;99.90
32400;DHT22;45045;45.440;9.178;2023-05-19T13:26:37;19.10;99.90
32400;DHT22;45045;45.440;9.178;2023-05-19T13:29:03;19.20;99.90
32400;DHT22;45045;45.440;9.178;2023-05-19T13:31:29;19.10;99.90
32400;DHT22;45045;45.440;9.178;2023-05-19T13:33:55;19.00;99.90
32400;DHT22;45045;45.440;9.178;2023-05-19T13:36:21;19.10;99.90
32400;DHT22;45045;45.440;9.178;2023-05-19T13:38:47;18.90;99.90
32400;DHT22;45045;45.440;9.178;2023-05-19T13:41:13;18.80;99.90
32400;DHT22;45045;45.440;9.178;2023-05-19T13:43:39;18.70;99.90
32400;DHT22;45045;45.440;9.178;2023-05-19T13:46:04;19.00;99.90
32400;DHT22;45045;45.440;9.178;2023-05-19T13:48:30;19.10;99.90
32400;DHT22;45045;45.440;9.178;2023-05-19T13:50:56;18.90;99.90
32400;DHT22;45045;45.440;9.178;2023-05-19T13:53:22;19.10;99.90
32400;DHT22;45045;45.440;9.178;2023-05-19T13:55:47;19.40;99.90
32400;DHT22;45045;45.440;9.178;2023-05-19T13:58:13;19.70;99.90
32400;DHT22;45045;45.440;9.178;2023-05-19T14:00:41;19.90;99.90
32400;DHT22;45045;45.440;9.178;2023-05-19T14:03:06;20.20;99.90
32400;DHT22;45045;45.440;9.178;2023-05-19T14:05:32;20.30;99.90
32400;DHT22;45045;45.440;9.178;2023-05-19T14:07:58;20.60;99.90
32400;DHT22;45045;45.440;9.178;2023-05-19T14:10:25;20.60;99.90
32400;DHT22;45045;45.440;9.178;2023-05-19T14:12:51;20.50;99.90
32400;DHT22;45045;45.440;9.178;2023-05-19T14:15:24;20.50;99.90
32400;DHT22;45045;45.440;9.178;2023-05-19T14:17:50;20.50;99.90
32400;DHT22;45045;45.440;9.178;2023-05-19T14:20:17;20.30;99.90
32400;DHT22;45045;45.440;9.178;2023-05-19T14:22:43;20.40;99.90
32400;DHT22;45045;45.440;9.178;2023-05-19T14:25:09;20.20;99.90
32400;DHT22;45045;45.440;9.178;2023-05-19T14:27:34;20.00;99.90
32400;DHT22;45045;45.440;9.178;2023-05-19T14:30:00;20.00;99.90
32400;DHT22;45045;45.440;9.178;2023-05-19T14:32:26;20.00;99.90
32400;DHT22;45045;45.440;9.178;2023-05-19T14:34:51;20.10;99.90
32400;DHT22;45045;45.440;9.178;2023-05-19T14:37:18;20.20;99.90
32400;DHT22;45045;45.440;9.178;2023-05-19T14:39:44;20.20;99.90
32400;DHT22;45045;45.440;9.178;2023-05-19T14:42:10;20.10;99.90
32400;DHT22;45045;45.440;9.178;2023-05-19T14:44:36;19.90;99.90
32400;DHT22;45045;45.440;9.178;2023-05-19T14:47:02;20.00;99.90
32400;DHT22;45045;45.440;9.178;2023-05-19T14:49:29;20.10;99.90
32400;DHT22;45045;45.440;9.178;2023-05-19T14:51:55;20.30;99.90
32400;DHT22;45045;45.440;9.178;2023-05-19T14:54:20;20.40;99.90
32400;DHT22;45045;45.440;9.178;2023-05-19T14:56:46;20.60;99.90
32400;DHT22;45045;45.440;9.178;2023-05-19T14:59:12;20.60;99.90
32400;DHT22;45045;45.440;9.178;2023-05-19T15:01:38;20.60;99.90
32400;DHT22;45045;45.440;9.178;2023-05-19T15:04:03;20.60;99.90
32400;DHT22;45045;45.440;9.178;2023-05-19T15:06:29;20.70;99.90
32400;DHT22;45045;45.440;9.178;2023-05-19T15:08:55;20.50;99.90
32400;DHT22;45045;45.440;9.178;2023-05-19T15:11:20;20.40;99.90
32400;DHT22;45045;45.440;9.178;2023-05-19T15:13:46;20.10;99.90
32400;DHT22;45045;45.440;9.178;2023-05-19T15:16:12;19.90;99.90
32400;DHT22;45045;45.440;9.178;2023-05-19T15:18:38;19.50;99.90
32400;DHT22;45045;45.440;9.178;2023-05-19T15:21:04;19.30;99.90
32400;DHT22;45045;45.440;9.178;2023-05-19T15:23:30;19.10;99.90
32400;DHT22;45045;45.440;9.178;2023-05-19T15:25:56;19.30;99.90
32400;DHT22;45045;45.440;9.178;2023-05-19T15:28:22;18.90;99.90
32400;DHT22;45045;45.440;9.178;2023-05-19T15:30:47;19.10;99.90
32400;DHT22;45045;45.440;9.178;2023-05-19T15:33:13;19.30;99.90
32400;DHT22;45045;45.440;9.178;2023-05-19T15:35:39;19.50;99.90
32400;DHT22;45045;45.440;9.178;2023-05-19T15:38:05;19.90;99.90
32400;DHT22;45045;45.440;9.178;2023-05-19T15:40:31;20.00;99.90
32400;DHT22;45045;45.440;9.178;2023-05-19T15:42:57;20.00;99.90
32400;DHT22;45045;45.440;9.178;2023-05-19T15:45:23;19.60;99.90
32400;DHT22;45045;45.440;9.178;2023-05-19T15:47:49;19.80;99.90
32400;DHT22;45045;45.440;9.178;2023-05-19T15:50:14;19.80;99.90
32400;DHT22;45045;45.440;9.178;2023-05-19T15:52:40;20.00;99.90
32400;DHT22;45045;45.440;9.178;2023-05-19T15:55:06;19.80;99.90
32400;DHT22;45045;45.440;9.178;2023-05-19T15:57:32;20.00;99.90
32400;DHT22;45045;45.440;9.178;2023-05-19T15:59:58;20.20;99.90
32400;DHT22;45045;45.440;9.178;2023-05-19T16:02:24;20.00;99.90